Time;durP1;ratioP1;P1;durP2;ratioP2;P2;SDS_P1;SDS_P2;PMS_P1;PMS_P2;Temp;Humidity;BMP_temperature;BMP_pressure;BME280_temperature;BME280_humidity;BME280_pressure;Samples;Min_cycle;Max_cycle;Signal;HPM_P1;HPM_P2
2021/01/07 00:01:22;;;;;;;8.73;1.50;;;;;;;17.73;72.70;101918.22;5032964;28;20048;-79
2021/01/07 00:03:47;;;;;;;5.50;1.10;;;;;;;17.72;72.74;101914.63;5033464;28;20053;-78
2021/01/07 00:06:13;;;;;;;4.80;1.40;;;;;;;17.72;72.76;101911.97;5033003;28;20095;-79
2021/01/07 00:08:38;;;;;;;4.85;0.90;;;;;;;17.72;72.28;101909.31;5032935;28;20037;-78
2021/01/07 00:11:03;;;;;;;6.50;1.40;;;;;;;17.75;72.79;101924.47;5033545;28;20033;-79
2021/01/07 00:13:29;;;;;;;8.40;1.23;;;;;;;17.76;72.15;101915.56;5033321;28;20034;-79
2021/01/07 00:15:54;;;;;;;3.47;1.10;;;;;;;17.76;72.43;101920.91;5032299;28;20050;-78
2021/01/07 00:18:19;;;;;;;8.45;1.30;;;;;;;17.76;72.55;101915.56;5015715;28;20045;-77
2021/01/07 00:20:45;;;;;;;3.28;1.17;;;;;;;17.76;72.28;101918.25;5014244;28;20520;-78
2021/01/07 00:23:10;;;;;;;5.90;1.10;;;;;;;17.75;72.11;101922.69;5032922;28;20508;-78
2021/01/07 00:25:35;;;;;;;3.97;1.10;;;;;;;17.71;72.68;101925.34;5032665;28;20562;-77
2021/01/07 00:28:01;;;;;;;3.33;1.00;;;;;;;17.74;72.27;101914.66;5014396;28;20430;-78
2021/01/07 00:30:27;;;;;;;2.10;1.00;;;;;;;17.73;72.39;101919.09;5032603;28;20517;-78
2021/01/07 00:32:52;;;;;;;4.45;0.93;;;;;;;17.74;72.03;101912.88;5031502;28;20132;-79
2021/01/07 00:35:17;;;;;;;2.38;1.20;;;;;;;17.73;72.81;101915.53;5033198;28;20046;-79
2021/01/07 00:37:43;;;;;;;4.60;1.50;;;;;;;17.75;72.06;101911.09;5014034;28;20034;-78
2021/01/07 00:40:08;;;;;;;3.05;1.15;;;;;;;17.74;72.31;101911.97;5014428;28;20107;-79
2021/01/07 00:42:34;;;;;;;7.28;1.40;;;;;;;17.74;72.67;101910.22;5032509;28;20034;-78
2021/01/07 00:44:59;;;;;;;10.25;1.20;;;;;;;17.72;72.80;101917.31;5033010;28;20044;-80
2021/01/07 00:47:24;;;;;;;4.82;1.00;;;;;;;17.73;72.88;101921.78;5033285;28;20033;-80
2021/01/07 00:49:50;;;;;;;4.43;1.27;;;;;;;17.71;72.40;101914.66;5015519;28;20056;-80
2021/01/07 00:52:15;;;;;;;9.65;1.23;;;;;;;17.72;72.26;101906.63;5032732;28;20057;-80
2021/01/07 00:54:41;;;;;;;7.13;1.52;;;;;;;17.71;72.93;101903.97;5032690;28;20087;-79
2021/01/07 00:57:06;;;;;;;2.67;1.00;;;;;;;17.72;72.57;101900.44;5032830;28;20038;-79
2021/01/07 00:59:32;;;;;;;5.30;1.20;;;;;;;17.71;72.95;101891.53;5015274;28;20044;-80
2021/01/07 01:01:57;;;;;;;3.72;1.23;;;;;;;17.69;72.69;101887.94;5031798;28;20037;-79
2021/01/07 01:04:22;;;;;;;2.55;1.08;;;;;;;17.68;72.90;101883.47;5032566;28;20433;-78
2021/01/07 01:06:48;;;;;;;1.60;1.00;;;;;;;17.70;72.62;101891.50;5014601;28;20049;-80
2021/01/07 01:09:13;;;;;;;4.80;1.20;;;;;;;17.71;72.39;101882.59;5014804;28;20233;-79
2021/01/07 01:11:39;;;;;;;1.85;1.02;;;;;;;17.71;72.52;101887.94;5032067;28;20037;-79
2021/01/07 01:14:04;;;;;;;6.75;1.13;;;;;;;17.68;72.65;101883.47;5014712;28;20053;-80
2021/01/07 01:16:30;;;;;;;6.75;1.20;;;;;;;17.69;72.69;101879.03;5032345;28;20041;-79
2021/01/07 01:18:55;;;;;;;2.72;1.10;;;;;;;17.68;72.67;101879.91;5014008;28;20105;-79
2021/01/07 01:21:20;;;;;;;1.70;1.00;;;;;;;17.68;72.61;101882.59;5032214;28;20513;-80
2021/01/07 01:23:46;;;;;;;3.65;1.20;;;;;;;17.68;72.96;101885.25;5031925;28;20045;-81
2021/01/07 01:26:11;;;;;;;2.67;1.10;;;;;;;17.68;72.68;101879.91;5032619;28;20044;-80
2021/01/07 01:28:36;;;;;;;2.47;0.90;;;;;;;17.65;73.25;101870.13;5014702;28;20065;-79
2021/01/07 01:31:02;;;;;;;4.00;0.95;;;;;;;17.67;73.22;101859.44;5015509;28;20422;-80
2021/01/07 01:33:27;;;;;;;5.43;1.10;;;;;;;17.70;72.51;101855.00;5014782;28;20041;-81
2021/01/07 01:35:52;;;;;;;4.00;1.10;;;;;;;17.69;72.57;101863.91;5014770;28;20075;-80
2021/01/07 01:38:18;;;;;;;3.15;0.90;;;;;;;17.70;72.47;101867.47;5032502;28;20442;-80
2021/01/07 01:40:43;;;;;;;3.20;0.90;;;;;;;17.70;72.65;101880.81;5031849;28;20064;-79
2021/01/07 01:43:08;;;;;;;3.75;1.20;;;;;;;17.68;72.96;101887.91;5031780;28;20041;-79
2021/01/07 01:45:34;;;;;;;2.60;1.02;;;;;;;17.67;72.60;101891.47;5014435;28;20113;-80
2021/01/07 01:47:59;;;;;;;2.50;0.85;;;;;;;17.66;72.57;101887.91;5014438;28;20505;-79
2021/01/07 01:50:24;;;;;;;2.92;0.85;;;;;;;17.66;73.18;101889.69;5032098;28;20034;-80
2021/01/07 01:52:50;;;;;;;1.75;0.90;;;;;;;17.68;72.83;101879.91;5014040;28;20133;-79
2021/01/07 01:55:15;;;;;;;7.82;1.08;;;;;;;17.67;72.91;101875.44;5015101;28;20044;-80
2021/01/07 01:57:40;;;;;;;4.43;1.05;;;;;;;17.64;72.54;101867.44;5013967;28;20052;-78
2021/01/07 02:00:06;;;;;;;3.47;0.90;;;;;;;17.68;72.65;101871.91;5032051;28;20080;-80
2021/01/07 02:02:31;;;;;;;3.85;0.90;;;;;;;17.66;72.53;101874.56;5031611;28;20060;-79
2021/01/07 02:04:56;;;;;;;1.48;1.05;;;;;;;17.68;72.26;101866.56;5031815;28;20486;-78
2021/01/07 02:07:22;;;;;;;4.57;1.23;;;;;;;17.66;72.66;101869.22;5031722;28;20041;-79
2021/01/07 02:09:47;;;;;;;4.93;1.00;;;;;;;17.63;72.37;101871.88;5031579;28;20042;-79
2021/01/07 02:12:12;;;;;;;1.98;0.80;;;;;;;17.68;72.31;101863.88;5014334;28;20371;-79
2021/01/07 02:14:38;;;;;;;6.13;1.00;;;;;;;17.69;71.99;101871.00;5031751;28;20033;-80
2021/01/07 02:17:03;;;;;;;1.00;0.80;;;;;;;17.64;72.14;101881.69;5014568;28;20125;-80
2021/01/07 02:19:28;;;;;;;3.05;0.90;;;;;;;17.66;72.19;101879.00;5031707;28;20073;-79
2021/01/07 02:21:54;;;;;;;3.67;0.98;;;;;;;17.62;72.32;101878.09;5031197;28;20061;-80
2021/01/07 02:24:19;;;;;;;1.65;0.80;;;;;;;17.63;72.86;101884.34;5014807;28;20071;-80
2021/01/07 02:26:44;;;;;;;5.97;0.98;;;;;;;17.61;73.01;101897.69;5031630;28;20064;-80
2021/01/07 02:29:10;;;;;;;3.22;1.10;;;;;;;17.64;72.88;101900.38;5014656;28;20486;-80
2021/01/07 02:31:35;;;;;;;2.72;0.88;;;;;;;17.63;72.84;101903.94;5014766;28;20091;-80
2021/01/07 02:34:00;;;;;;;2.20;0.90;;;;;;;17.60;72.52;101916.31;5031117;28;20029;-80
2021/01/07 02:36:26;;;;;;;8.35;1.25;;;;;;;17.60;72.97;101916.31;5014907;28;20087;-79
2021/01/07 02:38:51;;;;;;;13.30;1.30;;;;;;;17.58;72.44;101926.13;5030716;28;20045;-79
2021/01/07 02:41:17;;;;;;;8.05;1.27;;;;;;;17.60;72.70;101914.56;5012434;28;20038;-77
2021/01/07 02:43:42;;;;;;;6.72;0.80;;;;;;;17.60;72.63;101913.66;5030282;28;20037;-77
2021/01/07 02:46:07;;;;;;;3.05;0.80;;;;;;;17.60;72.67;101935.03;5013746;28;20049;-78
2021/01/07 02:48:33;;;;;;;15.75;1.02;;;;;;;17.65;72.93;101939.56;5031045;28;20034;-75
2021/01/07 02:50:58;;;;;;;3.70;1.10;;;;;;;17.69;72.81;101927.09;5010192;28;20041;-77
2021/01/07 02:53:23;;;;;;;11.43;1.15;;;;;;;17.63;72.43;101901.25;5000319;28;20495;-77
2021/01/07 02:55:49;;;;;;;16.85;1.10;;;;;;;17.64;72.94;101876.34;5014790;28;20053;-78
2021/01/07 02:58:14;;;;;;;7.30;1.10;;;;;;;17.64;72.80;101880.78;5033928;28;20482;-77
2021/01/07 03:00:39;;;;;;;4.60;0.88;;;;;;;17.60;72.94;101886.94;5011927;28;20057;-76
2021/01/07 03:03:06;;;;;;;4.85;1.08;;;;;;;17.65;72.26;101888.81;5041600;28;20288;-78
2021/01/07 03:05:31;;;;;;;7.65;0.82;;;;;;;17.63;72.35;101884.34;5017410;28;20405;-79
2021/01/07 03:07:56;;;;;;;7.03;0.88;;;;;;;17.62;72.22;101872.78;5033987;28;20125;-78
2021/01/07 03:10:22;;;;;;;4.38;0.90;;;;;;;17.62;72.30;101862.09;5034146;28;20103;-79
2021/01/07 03:12:47;;;;;;;3.20;0.82;;;;;;;17.61;72.73;101857.63;5034004;28;20034;-78
2021/01/07 03:15:12;;;;;;;11.57;1.20;;;;;;;17.61;72.61;101848.72;5034591;28;20056;-79
2021/01/07 03:17:38;;;;;;;4.30;0.90;;;;;;;17.60;72.36;101846.88;5033713;28;20072;-79
2021/01/07 03:20:03;;;;;;;1.63;0.70;;;;;;;17.58;72.57;101838.91;5033894;28;20059;-78
2021/01/07 03:22:28;;;;;;;4.60;0.80;;;;;;;17.60;72.35;101836.22;5015948;28;20048;-78
2021/01/07 03:24:54;;;;;;;1.85;0.80;;;;;;;17.60;72.79;101839.78;5033146;28;20050;-78
2021/01/07 03:27:19;;;;;;;7.03;1.20;;;;;;;17.60;72.26;101836.22;5033299;28;20037;-77
2021/01/07 03:29:44;;;;;;;1.60;0.80;;;;;;;17.61;72.46;101835.38;5014954;28;20041;-77
2021/01/07 03:32:10;;;;;;;2.33;0.98;;;;;;;17.59;72.08;101845.13;5032974;28;20037;-77
2021/01/07 03:34:35;;;;;;;1.40;0.80;;;;;;;17.57;72.19;101847.78;5015597;28;20497;-77
2021/01/07 03:37:00;;;;;;;3.58;0.80;;;;;;;17.57;72.46;101847.78;5033061;28;20096;-78
2021/01/07 03:39:26;;;;;;;3.83;0.90;;;;;;;17.59;72.29;101850.47;5015693;28;20033;-77
2021/01/07 03:41:51;;;;;;;1.73;0.70;;;;;;;17.62;72.12;101861.19;5032569;28;20076;-77
2021/01/07 03:44:17;;;;;;;4.60;0.80;;;;;;;17.56;72.54;101862.03;5033155;28;20041;-77
2021/01/07 03:46:42;;;;;;;1.80;0.93;;;;;;;17.57;72.58;101857.56;5016189;28;20052;-79
2021/01/07 03:49:07;;;;;;;0.88;0.70;;;;;;;17.57;72.09;101854.91;5016584;28;20038;-80
2021/01/07 03:51:33;;;;;;;1.17;0.73;;;;;;;17.61;72.32;101864.75;5033799;28;20556;-78
2021/01/07 03:53:58;;;;;;;1.55;0.77;;;;;;;17.56;72.52;101870.03;5015908;28;20037;-79
2021/01/07 03:56:23;;;;;;;1.13;0.70;;;;;;;17.57;72.55;101854.91;5034236;28;20034;-81
2021/01/07 03:58:49;;;;;;;0.82;0.70;;;;;;;17.56;72.04;101854.00;5033472;28;20694;-80
2021/01/07 04:01:15;;;;;;;1.65;0.70;;;;;;;17.54;72.62;101847.75;5033627;28;20379;-79
2021/01/07 04:03:40;;;;;;;1.50;0.70;;;;;;;17.57;72.23;101852.25;5033624;28;20383;-80
2021/01/07 04:06:05;;;;;;;1.40;0.80;;;;;;;17.56;72.08;101845.09;5033839;28;20061;-81
2021/01/07 04:08:31;;;;;;;4.13;0.90;;;;;;;17.56;71.89;101840.66;5016160;28;20042;-81
2021/01/07 04:10:56;;;;;;;1.02;0.70;;;;;;;17.62;72.23;101831.81;5016056;28;20440;-79
2021/01/07 04:13:41;;;;;;;1.60;0.73;;;;;;;17.53;72.60;101828.19;5018354;28;20116;-78
2021/01/07 04:16:07;;;;;;;6.63;0.77;;;;;;;17.52;72.39;101831.72;5033815;28;20061;-80
2021/01/07 04:18:32;;;;;;;0.98;0.70;;;;;;;17.52;72.43;101838.88;5016062;28;20063;-79
2021/01/07 04:20:58;;;;;;;0.93;0.77;;;;;;;17.54;71.98;101842.44;5031892;28;20490;-80
2021/01/07 04:23:23;;;;;;;5.57;1.00;;;;;;;17.50;72.39;101843.31;5015436;28;20498;-77
2021/01/07 04:25:48;;;;;;;1.75;0.80;;;;;;;17.53;72.46;101845.97;5031519;28;20111;-78
2021/01/07 04:28:14;;;;;;;6.97;0.70;;;;;;;17.53;72.14;101854.88;5031965;28;20611;-82
2021/01/07 04:30:39;;;;;;;23.08;1.30;;;;;;;17.54;71.82;101861.13;5013822;28;20141;-77
2021/01/07 04:33:04;;;;;;;4.68;0.80;;;;;;;17.50;71.98;101868.22;5031352;28;20045;-77
2021/01/07 04:35:30;;;;;;;1.80;0.88;;;;;;;17.48;72.40;101859.31;5031550;28;20578;-77
2021/01/07 04:37:55;;;;;;;3.38;0.60;;;;;;;17.47;71.98;101862.88;5030482;28;20077;-76
2021/01/07 04:40:20;;;;;;;3.30;0.70;;;;;;;17.48;72.54;101864.66;5031301;28;20351;-78
2021/01/07 04:42:46;;;;;;;8.40;1.00;;;;;;;17.47;72.41;101864.63;5030929;28;20128;-77
2021/01/07 04:45:11;;;;;;;6.07;0.90;;;;;;;17.45;72.59;101867.31;5031248;28;20064;-78
2021/01/07 04:47:36;;;;;;;7.60;0.90;;;;;;;17.44;72.08;101856.63;5013877;28;20083;-78
2021/01/07 04:50:02;;;;;;;4.10;0.80;;;;;;;17.43;72.29;101860.19;5013103;28;20561;-77
2021/01/07 04:52:27;;;;;;;5.63;0.80;;;;;;;17.42;71.90;101847.72;5013528;28;20118;-77
2021/01/07 04:54:53;;;;;;;4.78;0.77;;;;;;;17.41;72.29;101838.81;5013846;28;20767;-77
2021/01/07 04:57:18;;;;;;;4.20;0.77;;;;;;;17.42;71.80;101837.94;5014040;28;20422;-77
2021/01/07 04:59:43;;;;;;;3.05;0.77;;;;;;;17.41;71.76;101841.47;5030714;28;20029;-77
2021/01/07 05:02:09;;;;;;;2.00;0.77;;;;;;;17.37;72.51;101831.69;5031511;28;20399;-77
2021/01/07 05:04:34;;;;;;;1.95;0.70;;;;;;;17.39;71.96;101843.22;5013984;28;20056;-77
2021/01/07 05:07:00;;;;;;;2.58;0.82;;;;;;;17.38;71.91;101853.94;5030523;28;20034;-76
2021/01/07 05:09:25;;;;;;;3.00;0.77;;;;;;;17.41;71.76;101851.25;5031100;28;20034;-76
2021/01/07 05:11:50;;;;;;;2.78;0.75;;;;;;;17.41;71.98;101853.94;5013941;28;20038;-75
2021/01/07 05:14:16;;;;;;;1.80;0.70;;;;;;;17.44;72.21;101856.63;5030486;28;20398;-76
2021/01/07 05:16:41;;;;;;;8.77;0.80;;;;;;;17.41;71.72;101849.50;5031146;28;20371;-76
2021/01/07 05:19:07;;;;;;;1.30;0.70;;;;;;;17.42;71.67;101850.38;5031058;28;20033;-76
2021/01/07 05:21:32;;;;;;;3.60;0.88;;;;;;;17.40;72.06;101852.13;5030768;28;20040;-77
2021/01/07 05:23:58;;;;;;;4.53;0.60;;;;;;;17.41;72.14;101857.50;5014208;28;20044;-78
2021/01/07 05:26:23;;;;;;;1.23;0.60;;;;;;;17.44;71.87;101857.53;5014401;28;20073;-79
2021/01/07 05:28:48;;;;;;;1.35;0.57;;;;;;;17.44;71.62;101860.19;5014367;28;20054;-80
2021/01/07 05:31:14;;;;;;;1.48;0.60;;;;;;;17.44;71.50;101860.19;5014978;28;20042;-78
2021/01/07 05:33:39;;;;;;;3.00;0.80;;;;;;;17.44;71.75;101852.19;5032101;28;20069;-79
2021/01/07 05:36:05;;;;;;;1.92;0.70;;;;;;;17.43;72.14;101853.06;5014989;28;20081;-80
2021/01/07 05:38:30;;;;;;;1.73;0.70;;;;;;;17.45;72.10;101861.09;5015073;28;20513;-80
2021/01/07 05:40:55;;;;;;;1.45;0.70;;;;;;;17.39;72.22;101864.59;5014751;28;20045;-80
2021/01/07 05:43:21;;;;;;;1.13;0.70;;;;;;;17.42;71.45;101869.97;5032361;28;20136;-80
2021/01/07 05:45:46;;;;;;;1.45;0.65;;;;;;;17.40;71.63;101868.16;5032096;28;20168;-80
2021/01/07 05:48:11;;;;;;;0.60;0.52;;;;;;;17.41;72.06;101878.84;5031927;28;20038;-81
2021/01/07 05:50:37;;;;;;;1.67;0.70;;;;;;;17.37;71.96;101871.72;5015023;28;20408;-80
2021/01/07 05:53:02;;;;;;;6.30;0.60;;;;;;;17.43;71.41;101895.78;5014522;28;20044;-80
2021/01/07 05:55:28;;;;;;;1.10;0.80;;;;;;;17.42;72.04;101896.66;5032138;28;20049;-78
2021/01/07 05:57:53;;;;;;;4.82;0.80;;;;;;;17.40;71.64;101898.41;5029735;28;20506;-76
2021/01/07 06:00:19;;;;;;;0.90;0.70;;;;;;;17.40;71.57;101908.19;5030937;28;20038;-77
2021/01/07 06:02:44;;;;;;;3.75;0.90;;;;;;;17.39;71.45;101909.97;5030437;28;20494;-77
2021/01/07 06:05:09;;;;;;;2.08;0.85;;;;;;;17.41;71.80;101896.66;5030878;28;20055;-78
2021/01/07 06:07:35;;;;;;;2.35;0.80;;;;;;;17.40;71.93;101901.09;5030405;28;20580;-77
2021/01/07 06:10:00;;;;;;;1.42;0.60;;;;;;;17.44;72.00;101912.69;5030475;28;20521;-77
2021/01/07 06:12:26;;;;;;;5.10;0.82;;;;;;;17.40;72.00;101913.53;5030649;28;20073;-77
2021/01/07 06:14:51;;;;;;;0.88;0.65;;;;;;;17.41;71.77;101910.88;5013414;28;20594;-77
2021/01/07 06:17:16;;;;;;;0.93;0.70;;;;;;;17.41;71.91;101910.88;5030510;28;20045;-78
2021/01/07 06:19:42;;;;;;;1.05;0.65;;;;;;;17.38;71.46;101907.31;5012983;28;20037;-78
2021/01/07 06:22:07;;;;;;;0.63;0.60;;;;;;;17.39;71.38;101909.97;5031066;28;20033;-75
2021/01/07 06:24:33;;;;;;;1.30;0.80;;;;;;;17.42;72.07;101917.13;5013263;28;20116;-77
2021/01/07 06:26:58;;;;;;;0.90;0.63;;;;;;;17.43;71.71;101917.13;5033635;28;20042;-77
2021/01/07 06:29:23;;;;;;;4.75;0.90;;;;;;;17.42;71.37;101918.03;5034227;28;20188;-78
2021/01/07 06:31:49;;;;;;;2.75;1.10;;;;;;;17.40;71.88;101924.22;5016529;28;20056;-78
2021/01/07 06:34:14;;;;;;;3.30;0.90;;;;;;;17.45;71.55;101920.72;5017264;28;20055;-78
2021/01/07 06:36:39;;;;;;;1.83;0.90;;;;;;;17.44;71.71;101929.59;5033790;28;20034;-78
2021/01/07 06:39:05;;;;;;;2.83;0.95;;;;;;;17.42;72.37;101934.03;5017209;28;20049;-78
2021/01/07 06:41:30;;;;;;;4.10;0.90;;;;;;;17.40;72.04;101925.13;5017054;28;20035;-77
2021/01/07 06:43:55;;;;;;;3.30;1.00;;;;;;;17.41;71.76;101931.34;5034256;28;20390;-79
2021/01/07 06:46:21;;;;;;;2.95;1.00;;;;;;;17.42;71.85;101927.81;5016904;28;20132;-78
2021/01/07 06:48:46;;;;;;;2.75;1.05;;;;;;;17.45;72.02;101930.50;5033132;28;20042;-78
2021/01/07 06:51:12;;;;;;;3.25;1.50;;;;;;;17.42;71.96;101939.38;5018109;28;20504;-84
2021/01/07 06:53:37;;;;;;;4.57;1.10;;;;;;;17.39;71.88;101938.47;5035364;28;20038;-82
2021/01/07 06:56:02;;;;;;;6.50;1.42;;;;;;;17.39;72.54;101947.34;5035328;28;20060;-81
2021/01/07 06:58:28;;;;;;;2.42;1.52;;;;;;;17.43;71.61;101943.84;5018542;28;20570;-86
2021/01/07 07:00:53;;;;;;;3.35;1.42;;;;;;;17.41;71.66;101953.59;5034976;28;20445;-86
2021/01/07 07:03:18;;;;;;;2.63;1.20;;;;;;;17.41;72.25;101953.59;5036133;28;20033;-84
2021/01/07 07:05:44;;;;;;;2.75;1.58;;;;;;;17.39;71.68;101952.69;5017729;28;20033;-83
2021/01/07 07:08:09;;;;;;;2.35;1.30;;;;;;;17.42;71.58;101955.41;5034695;28;20041;-86
2021/01/07 07:10:34;;;;;;;2.08;1.40;;;;;;;17.39;71.72;101963.38;5018477;28;20026;-82
2021/01/07 07:13:00;;;;;;;4.63;1.30;;;;;;;17.39;71.78;101960.69;5035050;28;20034;-84
2021/01/07 07:15:25;;;;;;;3.85;1.40;;;;;;;17.39;71.77;101966.03;5017784;28;20079;-84
2021/01/07 07:17:50;;;;;;;3.10;1.42;;;;;;;17.40;72.42;101972.28;5034593;28;20183;-84
2021/01/07 07:20:16;;;;;;;1.52;1.40;;;;;;;17.40;71.67;101983.84;5035180;28;20405;-83
2021/01/07 07:22:41;;;;;;;3.42;1.30;;;;;;;17.43;71.73;101965.19;5017149;28;20045;-83
2021/01/07 07:25:07;;;;;;;3.42;1.42;;;;;;;17.43;72.08;101970.53;5018161;28;20030;-83
2021/01/07 07:27:32;;;;;;;26.30;1.95;;;;;;;17.49;72.07;101967.00;5017724;28;20041;-84
2021/01/07 07:29:58;;;;;;;17.55;1.60;;;;;;;17.64;71.48;101966.25;5033326;28;20479;-76
2021/01/07 07:32:24;;;;;;;28.05;2.13;;;;;;;17.52;71.96;101957.22;5015238;28;20573;-77
2021/01/07 07:34:50;;;;;;;27.70;2.70;;;;;;;17.42;72.63;101954.50;5033185;28;20041;-79
2021/01/07 07:37:15;;;;;;;13.23;2.08;;;;;;;17.41;73.00;101958.94;5015296;28;20051;-76
2021/01/07 07:39:40;;;;;;;14.27;2.25;;;;;;;17.41;72.84;101958.03;5033074;28;20038;-77
2021/01/07 07:42:05;;;;;;;11.75;2.17;;;;;;;17.38;72.65;101948.25;5015697;28;20149;-78
2021/01/07 07:44:31;;;;;;;13.20;1.80;;;;;;;17.39;72.55;101952.69;5024529;28;20217;-76
2021/01/07 07:46:56;;;;;;;19.27;2.15;;;;;;;17.45;72.76;101944.75;4999642;28;20041;-80
2021/01/07 07:49:21;;;;;;;8.60;1.88;;;;;;;17.46;72.05;101945.63;5033606;28;20033;-77
2021/01/07 07:51:47;;;;;;;15.05;1.95;;;;;;;17.57;71.43;101929.69;5032400;28;20590;-77
2021/01/07 07:54:12;;;;;;;12.75;2.20;;;;;;;17.44;71.51;101932.28;5029886;28;20075;-84
2021/01/07 07:56:38;;;;;;;10.65;1.92;;;;;;;17.43;71.84;101937.59;5030638;28;20033;-79
2021/01/07 07:59:03;;;;;;;47.65;2.45;;;;;;;17.39;71.99;101926.00;5032875;28;20494;-80
2021/01/07 08:04:13;;;;;;;30.67;2.97;;;;;;;17.75;70.92;101921.78;5071408;23;20072;-75
2021/01/07 08:06:38;;;;;;;50.35;3.45;;;;;;;17.73;71.87;101924.44;4988795;28;20132;-74
2021/01/07 08:09:03;;;;;;;47.95;3.08;;;;;;;17.61;72.50;101926.16;4981468;28;20583;-73
2021/01/07 08:11:30;;;;;;;26.08;3.95;;;;;;;17.51;72.75;101925.19;4990367;28;20084;-77
2021/01/07 08:13:56;;;;;;;33.70;2.67;;;;;;;17.43;72.56;101925.16;4991190;28;20534;-77
2021/01/07 08:16:21;;;;;;;21.92;2.80;;;;;;;17.47;72.27;101921.59;5027293;28;20041;-75
2021/01/07 08:18:47;;;;;;;14.32;2.78;;;;;;;17.52;72.18;101918.97;5009540;28;20041;-76
2021/01/07 08:21:12;;;;;;;13.10;2.80;;;;;;;17.51;72.04;101912.75;5029946;28;20041;-75
2021/01/07 08:23:37;;;;;;;16.33;2.75;;;;;;;17.50;72.50;101905.63;5011914;28;20480;-75
2021/01/07 08:26:03;;;;;;;12.55;2.63;;;;;;;17.49;71.90;101906.50;5011148;28;20124;-75
2021/01/07 08:28:28;;;;;;;13.00;2.60;;;;;;;17.50;72.42;101918.97;5028381;28;20033;-75
2021/01/07 08:30:53;;;;;;;12.13;2.40;;;;;;;17.46;72.39;101909.13;5028193;28;20046;-75
2021/01/07 08:33:19;;;;;;;14.77;2.72;;;;;;;17.48;72.19;101901.13;5011667;28;20067;-74
2021/01/07 08:35:44;;;;;;;13.63;2.80;;;;;;;17.46;72.44;101908.25;5013120;28;20040;-74
2021/01/07 08:38:10;;;;;;;15.77;2.60;;;;;;;17.44;72.04;101910.91;5028525;28;20041;-72
2021/01/07 08:40:35;;;;;;;9.90;2.60;;;;;;;17.41;71.57;101900.22;5010760;28;20044;-72
2021/01/07 08:43:00;;;;;;;9.57;2.63;;;;;;;17.43;71.67;101902.91;5028442;28;20049;-72
2021/01/07 08:45:26;;;;;;;8.80;2.15;;;;;;;17.40;71.56;101900.19;5028820;28;20743;-72
2021/01/07 08:47:51;;;;;;;7.85;2.70;;;;;;;17.40;71.36;101900.19;5027864;28;20045;-71
2021/01/07 08:50:19;;;;;;;15.15;3.33;;;;;;;17.39;71.18;101890.44;5010590;28;20025;-83
2021/01/07 08:52:44;;;;;;;9.75;3.85;;;;;;;17.39;71.55;101875.28;5011056;28;20052;-77
2021/01/07 08:55:10;;;;;;;7.80;4.10;;;;;;;17.39;70.91;101877.94;5028781;28;20041;-78
2021/01/07 08:57:35;;;;;;;12.00;5.80;;;;;;;17.40;70.73;101884.19;5029594;28;20045;-79
2021/01/07 09:00:00;;;;;;;15.30;6.20;;;;;;;17.41;70.68;101877.97;5027311;28;20062;-72
2021/01/07 09:02:26;;;;;;;12.65;7.35;;;;;;;17.45;70.20;101886.00;5010610;28;20037;-74
2021/01/07 09:04:54;;;;;;;16.08;8.93;;;;;;;17.45;70.14;101880.69;5010086;28;20068;-72
2021/01/07 09:07:19;;;;;;;24.48;11.38;;;;;;;17.45;70.08;101888.69;5010818;28;20694;-72
2021/01/07 09:09:44;;;;;;;11.88;10.43;;;;;;;17.38;70.17;101892.19;5010364;28;20164;-72
2021/01/07 09:12:39;;;;;;;17.30;12.00;;;;;;;17.41;70.09;101888.63;5027248;28;20037;-72
2021/01/07 09:15:10;;;;;;;17.90;13.13;;;;;;;17.36;69.75;101885.94;5027909;28;20033;-73
2021/01/07 09:17:36;;;;;;;25.10;14.13;;;;;;;17.37;69.77;101873.50;5028033;28;20071;-73
2021/01/07 09:20:01;;;;;;;21.10;14.45;;;;;;;17.35;69.70;101881.50;5027436;28;20489;-72
2021/01/07 09:22:27;;;;;;;19.70;14.38;;;;;;;17.37;69.81;101869.06;5028489;28;20107;-72
2021/01/07 09:24:52;;;;;;;19.63;14.25;;;;;;;17.37;69.05;101860.16;5010345;28;20045;-71
2021/01/07 09:27:17;;;;;;;20.42;14.93;;;;;;;17.37;69.11;101863.72;5027718;28;20045;-71
2021/01/07 09:29:43;;;;;;;16.92;13.80;;;;;;;17.36;69.05;101858.34;5026946;28;20033;-73
2021/01/07 09:32:08;;;;;;;18.70;13.63;;;;;;;17.39;69.18;101853.91;5008349;28;20056;-74
2021/01/07 09:34:33;;;;;;;21.70;15.25;;;;;;;17.39;69.32;101856.59;5028366;28;20048;-71
2021/01/07 09:36:59;;;;;;;18.65;13.85;;;;;;;17.39;68.72;101856.59;5009560;28;20045;-71
2021/01/07 09:39:24;;;;;;;17.90;14.10;;;;;;;17.38;68.34;101841.47;5028205;28;20068;-72
2021/01/07 09:41:49;;;;;;;20.35;12.88;;;;;;;17.37;68.19;101845.03;5021369;28;20409;-72
2021/01/07 09:44:15;;;;;;;21.77;13.13;;;;;;;17.39;68.36;101842.38;5028725;28;20405;-73
2021/01/07 09:46:40;;;;;;;20.23;13.88;;;;;;;17.38;68.84;101836.13;5029324;28;20068;-71
2021/01/07 09:49:05;;;;;;;18.08;12.40;;;;;;;17.42;68.35;101821.91;5029600;28;20041;-74
2021/01/07 09:51:31;;;;;;;33.35;12.65;;;;;;;17.52;68.25;101820.19;5011800;28;20414;-74
2021/01/07 09:53:56;;;;;;;32.42;13.80;;;;;;;17.46;68.44;101807.66;5010298;28;20042;-75
2021/01/07 09:56:22;;;;;;;85.60;15.30;;;;;;;17.64;67.76;101792.66;5012432;28;20087;-73
2021/01/07 09:58:47;;;;;;;94.35;14.85;;;;;;;17.78;68.49;101801.63;5011182;28;20041;-74
2021/01/07 10:01:12;;;;;;;77.88;13.95;;;;;;;17.74;68.53;101800.69;5015802;28;20037;-74
2021/01/07 10:03:38;;;;;;;75.53;15.25;;;;;;;17.75;68.67;101801.59;5012433;28;20057;-74
2021/01/07 10:06:03;;;;;;;87.57;13.88;;;;;;;17.68;68.87;101799.78;5011674;28;20119;-73
2021/01/07 10:08:28;;;;;;;70.43;15.80;;;;;;;17.53;68.80;101790.78;5021894;28;20476;-74
2021/01/07 10:10:54;;;;;;;48.30;14.13;;;;;;;17.49;69.54;101793.47;5013854;28;20034;-73
2021/01/07 10:13:19;;;;;;;55.92;13.52;;;;;;;17.46;69.15;101794.31;5013393;28;20034;-74
2021/01/07 10:15:44;;;;;;;40.05;12.65;;;;;;;17.46;69.49;101812.13;5013536;28;20137;-73
2021/01/07 10:18:10;;;;;;;31.45;12.45;;;;;;;17.47;69.07;101808.56;5013862;28;20037;-74
2021/01/07 10:20:35;;;;;;;33.00;12.18;;;;;;;17.44;69.42;101792.56;4996635;28;20730;-73
2021/01/07 10:23:00;;;;;;;29.15;12.23;;;;;;;17.43;69.34;101791.66;4995397;28;20088;-74
2021/01/07 10:25:26;;;;;;;24.45;12.13;;;;;;;17.46;69.27;101780.09;5013986;28;20045;-74
2021/01/07 10:27:51;;;;;;;32.40;12.88;;;;;;;17.47;69.09;101779.19;5013108;28;20109;-74
2021/01/07 10:30:16;;;;;;;21.85;12.13;;;;;;;17.46;69.70;101775.63;5014071;28;20096;-74
2021/01/07 10:32:42;;;;;;;29.98;11.98;;;;;;;17.45;69.42;101784.56;5012669;28;20037;-73
2021/01/07 10:35:07;;;;;;;28.10;12.15;;;;;;;17.44;69.46;101790.78;5012112;28;20053;-74
2021/01/07 10:37:33;;;;;;;21.67;12.40;;;;;;;17.47;69.44;101790.78;5013449;28;20446;-74
2021/01/07 10:39:59;;;;;;;37.45;11.30;;;;;;;17.46;69.29;101796.09;5012006;28;20134;-73
2021/01/07 10:42:24;;;;;;;26.50;12.07;;;;;;;17.47;69.23;101788.09;5012562;28;20117;-74
2021/01/07 10:44:52;;;;;;;20.52;10.98;;;;;;;17.46;69.33;101791.66;5011848;28;20097;-74
2021/01/07 10:47:17;;;;;;;21.92;10.95;;;;;;;17.47;69.57;101793.44;4995813;28;20036;-74
2021/01/07 10:49:42;;;;;;;23.02;11.30;;;;;;;17.47;69.62;101796.13;4995159;28;20038;-74
2021/01/07 10:52:08;;;;;;;28.55;11.98;;;;;;;17.48;69.95;101794.34;5013378;28;20034;-73
2021/01/07 10:54:33;;;;;;;29.75;11.43;;;;;;;17.47;69.76;101796.13;5013063;28;20446;-74
2021/01/07 10:56:58;;;;;;;24.17;11.55;;;;;;;17.48;69.82;101799.69;5011447;28;20045;-74
2021/01/07 10:59:24;;;;;;;21.90;11.60;;;;;;;17.48;69.28;101789.91;5012227;28;20046;-74
2021/01/07 11:01:50;;;;;;;23.38;11.68;;;;;;;17.47;69.76;101789.88;5011653;28;20146;-74
2021/01/07 11:04:15;;;;;;;20.55;11.32;;;;;;;17.46;69.83;101801.44;5012154;28;20050;-73
2021/01/07 11:06:41;;;;;;;18.00;11.23;;;;;;;17.46;69.65;101805.00;5012714;28;20446;-73
2021/01/07 11:09:06;;;;;;;20.63;11.07;;;;;;;17.47;69.35;101795.22;5013167;28;20042;-74
2021/01/07 11:11:32;;;;;;;17.42;10.60;;;;;;;17.47;69.87;101792.53;5012062;28;20056;-73
2021/01/07 11:13:57;;;;;;;17.65;10.95;;;;;;;17.46;69.59;101788.97;5011340;28;20129;-74
2021/01/07 11:16:22;;;;;;;23.88;9.85;;;;;;;17.46;69.90;101774.75;5012799;28;20465;-73